sensor_id;sensor_type;location;lat;lon;timestamp;P1;durP1;ratioP1;P2;durP2;ratioP2
75687;SDS011;64300;45.034;38.910;2023-05-10T00:00:01;9.95;;;5.07;;
75687;SDS011;64300;45.034;38.910;2023-05-10T00:02:26;12.55;;;5.00;;
75687;SDS011;64300;45.034;38.910;2023-05-10T00:04:52;8.55;;;4.30;;
75687;SDS011;64300;45.034;38.910;2023-05-10T00:07:17;13.48;;;4.43;;
75687;SDS011;64300;45.034;38.910;2023-05-10T00:09:43;9.25;;;4.32;;
75687;SDS011;64300;45.034;38.910;2023-05-10T00:12:08;9.20;;;4.82;;
75687;SDS011;64300;45.034;38.910;2023-05-10T00:14:34;9.63;;;4.53;;
75687;SDS011;64300;45.034;38.910;2023-05-10T00:17:00;8.23;;;4.28;;
75687;SDS011;64300;45.034;38.910;2023-05-10T00:19:26;9.65;;;4.50;;
75687;SDS011;64300;45.034;38.910;2023-05-10T00:21:51;9.25;;;4.07;;
75687;SDS011;64300;45.034;38.910;2023-05-10T00:24:17;9.65;;;4.60;;
75687;SDS011;64300;45.034;38.910;2023-05-10T00:26:42;7.05;;;4.05;;
75687;SDS011;64300;45.034;38.910;2023-05-10T00:29:08;6.88;;;4.10;;
75687;SDS011;64300;45.034;38.910;2023-05-10T00:31:34;5.78;;;3.10;;
75687;SDS011;64300;45.034;38.910;2023-05-10T00:33:59;7.28;;;3.85;;
75687;SDS011;64300;45.034;38.910;2023-05-10T00:36:25;8.98;;;3.55;;
75687;SDS011;64300;45.034;38.910;2023-05-10T00:38:51;6.65;;;3.65;;
75687;SDS011;64300;45.034;38.910;2023-05-10T00:41:16;8.05;;;3.88;;
75687;SDS011;64300;45.034;38.910;2023-05-10T00:43:44;8.35;;;4.13;;
75687;SDS011;64300;45.034;38.910;2023-05-10T00:46:09;9.20;;;4.20;;
75687;SDS011;64300;45.034;38.910;2023-05-10T00:48:36;10.07;;;4.13;;
75687;SDS011;64300;45.034;38.910;2023-05-10T00:51:02;8.23;;;4.30;;
75687;SDS011;64300;45.034;38.910;2023-05-10T00:53:28;8.02;;;4.43;;
75687;SDS011;64300;45.034;38.910;2023-05-10T00:55:56;9.93;;;4.20;;
75687;SDS011;64300;45.034;38.910;2023-05-10T00:58:21;7.97;;;4.18;;
75687;SDS011;64300;45.034;38.910;2023-05-10T01:00:49;7.13;;;3.95;;
75687;SDS011;64300;45.034;38.910;2023-05-10T01:03:14;7.22;;;4.03;;
75687;SDS011;64300;45.034;38.910;2023-05-10T01:05:40;7.35;;;3.92;;
75687;SDS011;64300;45.034;38.910;2023-05-10T01:08:06;8.23;;;3.67;;
75687;SDS011;64300;45.034;38.910;2023-05-10T01:10:33;7.57;;;3.90;;
75687;SDS011;64300;45.034;38.910;2023-05-10T01:12:59;9.93;;;3.60;;
75687;SDS011;64300;45.034;38.910;2023-05-10T01:15:25;7.18;;;3.78;;
75687;SDS011;64300;45.034;38.910;2023-05-10T01:17:51;8.07;;;3.40;;
75687;SDS011;64300;45.034;38.910;2023-05-10T01:20:17;7.05;;;3.35;;
75687;SDS011;64300;45.034;38.910;2023-05-10T01:35:42;10.23;;;3.42;;
75687;SDS011;64300;45.034;38.910;2023-05-10T01:43:19;8.23;;;3.88;;
75687;SDS011;64300;45.034;38.910;2023-05-10T01:48:12;10.40;;;4.15;;
75687;SDS011;64300;45.034;38.910;2023-05-10T01:50:40;7.25;;;3.90;;
75687;SDS011;64300;45.034;38.910;2023-05-10T01:53:07;9.55;;;3.95;;
75687;SDS011;64300;45.034;38.910;2023-05-10T01:55:35;8.27;;;4.05;;
75687;SDS011;64300;45.034;38.910;2023-05-10T01:58:09;10.60;;;4.40;;
75687;SDS011;64300;45.034;38.910;2023-05-10T02:00:35;8.77;;;3.70;;
75687;SDS011;64300;45.034;38.910;2023-05-10T02:03:04;7.45;;;3.80;;
75687;SDS011;64300;45.034;38.910;2023-05-10T02:05:30;8.77;;;4.30;;
75687;SDS011;64300;45.034;38.910;2023-05-10T02:07:57;6.57;;;3.58;;
75687;SDS011;64300;45.034;38.910;2023-05-10T02:10:23;6.90;;;3.65;;
75687;SDS011;64300;45.034;38.910;2023-05-10T02:12:49;8.35;;;4.03;;
75687;SDS011;64300;45.034;38.910;2023-05-10T02:15:18;11.80;;;4.00;;
75687;SDS011;64300;45.034;38.910;2023-05-10T02:17:46;9.75;;;4.55;;
75687;SDS011;64300;45.034;38.910;2023-05-10T02:20:12;7.75;;;4.03;;
75687;SDS011;64300;45.034;38.910;2023-05-10T02:22:38;8.48;;;3.67;;
75687;SDS011;64300;45.034;38.910;2023-05-10T02:25:04;7.68;;;3.80;;
75687;SDS011;64300;45.034;38.910;2023-05-10T02:27:31;8.40;;;3.58;;
75687;SDS011;64300;45.034;38.910;2023-05-10T02:29:57;8.07;;;4.28;;
75687;SDS011;64300;45.034;38.910;2023-05-10T02:32:24;7.60;;;3.72;;
75687;SDS011;64300;45.034;38.910;2023-05-10T02:34:50;7.55;;;3.72;;
75687;SDS011;64300;45.034;38.910;2023-05-10T02:37:18;6.63;;;3.58;;
75687;SDS011;64300;45.034;38.910;2023-05-10T02:39:44;7.40;;;3.72;;
75687;SDS011;64300;45.034;38.910;2023-05-10T02:42:18;6.28;;;3.25;;
75687;SDS011;64300;45.034;38.910;2023-05-10T02:44:45;7.18;;;3.50;;
75687;SDS011;64300;45.034;38.910;2023-05-10T02:47:11;7.78;;;3.83;;
75687;SDS011;64300;45.034;38.910;2023-05-10T02:49:36;8.93;;;3.65;;
75687;SDS011;64300;45.034;38.910;2023-05-10T02:52:03;8.40;;;3.63;;
75687;SDS011;64300;45.034;38.910;2023-05-10T02:54:31;6.57;;;3.58;;
75687;SDS011;64300;45.034;38.910;2023-05-10T02:59:58;8.77;;;3.90;;
75687;SDS011;64300;45.034;38.910;2023-05-10T03:02:25;8.75;;;4.60;;
75687;SDS011;64300;45.034;38.910;2023-05-10T03:04:51;8.65;;;3.88;;
75687;SDS011;64300;45.034;38.910;2023-05-10T03:07:17;8.32;;;3.92;;
75687;SDS011;64300;45.034;38.910;2023-05-10T03:09:47;9.50;;;4.65;;
75687;SDS011;64300;45.034;38.910;2023-05-10T03:15:07;8.60;;;4.15;;
75687;SDS011;64300;45.034;38.910;2023-05-10T03:22:37;6.25;;;2.63;;
75687;SDS011;64300;45.034;38.910;2023-05-10T03:25:05;8.13;;;3.47;;
75687;SDS011;64300;45.034;38.910;2023-05-10T03:27:32;4.53;;;1.92;;
75687;SDS011;64300;45.034;38.910;2023-05-10T03:29:59;7.72;;;3.33;;
75687;SDS011;64300;45.034;38.910;2023-05-10T03:32:28;8.95;;;3.50;;
75687;SDS011;64300;45.034;38.910;2023-05-10T03:34:54;5.80;;;2.58;;
75687;SDS011;64300;45.034;38.910;2023-05-10T03:37:20;6.32;;;3.00;;
75687;SDS011;64300;45.034;38.910;2023-05-10T03:39:45;5.35;;;2.38;;
75687;SDS011;64300;45.034;38.910;2023-05-10T03:42:11;6.40;;;2.10;;
75687;SDS011;64300;45.034;38.910;2023-05-10T03:44:38;5.68;;;2.55;;
75687;SDS011;64300;45.034;38.910;2023-05-10T03:47:04;4.35;;;2.10;;
75687;SDS011;64300;45.034;38.910;2023-05-10T03:49:30;4.07;;;2.13;;
75687;SDS011;64300;45.034;38.910;2023-05-10T03:51:56;5.32;;;2.13;;
75687;SDS011;64300;45.034;38.910;2023-05-10T03:54:21;4.60;;;1.65;;
75687;SDS011;64300;45.034;38.910;2023-05-10T03:56:47;3.03;;;1.40;;
75687;SDS011;64300;45.034;38.910;2023-05-10T03:59:14;3.00;;;1.45;;
75687;SDS011;64300;45.034;38.910;2023-05-10T04:01:40;3.85;;;1.85;;
75687;SDS011;64300;45.034;38.910;2023-05-10T04:04:08;3.88;;;1.88;;
75687;SDS011;64300;45.034;38.910;2023-05-10T04:06:33;2.05;;;1.02;;
75687;SDS011;64300;45.034;38.910;2023-05-10T04:08:59;3.08;;;1.48;;
75687;SDS011;64300;45.034;38.910;2023-05-10T04:11:29;3.22;;;1.55;;
75687;SDS011;64300;45.034;38.910;2023-05-10T04:13:55;7.55;;;1.85;;
75687;SDS011;64300;45.034;38.910;2023-05-10T04:16:20;3.80;;;1.98;;
75687;SDS011;64300;45.034;38.910;2023-05-10T04:18:46;3.35;;;1.65;;
75687;SDS011;64300;45.034;38.910;2023-05-10T04:21:12;3.97;;;1.67;;
75687;SDS011;64300;45.034;38.910;2023-05-10T04:23:39;2.83;;;1.33;;
75687;SDS011;64300;45.034;38.910;2023-05-10T04:26:05;4.15;;;2.08;;
75687;SDS011;64300;45.034;38.910;2023-05-10T04:28:30;3.90;;;1.77;;
75687;SDS011;64300;45.034;38.910;2023-05-10T04:33:28;3.88;;;1.65;;
75687;SDS011;64300;45.034;38.910;2023-05-10T04:35:53;6.07;;;2.42;;
75687;SDS011;64300;45.034;38.910;2023-05-10T04:38:19;5.13;;;2.30;;
75687;SDS011;64300;45.034;38.910;2023-05-10T04:40:44;4.00;;;2.08;;
75687;SDS011;64300;45.034;38.910;2023-05-10T04:43:10;5.78;;;2.38;;
75687;SDS011;64300;45.034;38.910;2023-05-10T04:45:36;4.75;;;2.47;;
75687;SDS011;64300;45.034;38.910;2023-05-10T04:48:01;3.88;;;1.90;;
75687;SDS011;64300;45.034;38.910;2023-05-10T04:50:27;4.43;;;2.25;;
75687;SDS011;64300;45.034;38.910;2023-05-10T04:52:52;5.70;;;2.22;;
75687;SDS011;64300;45.034;38.910;2023-05-10T04:55:18;5.80;;;2.75;;
75687;SDS011;64300;45.034;38.910;2023-05-10T04:57:43;8.57;;;5.10;;
75687;SDS011;64300;45.034;38.910;2023-05-10T05:00:10;6.00;;;3.53;;
75687;SDS011;64300;45.034;38.910;2023-05-10T05:02:36;7.53;;;3.88;;
75687;SDS011;64300;45.034;38.910;2023-05-10T05:05:01;5.95;;;3.40;;
75687;SDS011;64300;45.034;38.910;2023-05-10T05:07:27;6.80;;;2.65;;
75687;SDS011;64300;45.034;38.910;2023-05-10T05:09:53;5.53;;;2.55;;
75687;SDS011;64300;45.034;38.910;2023-05-10T05:12:18;5.78;;;2.35;;
75687;SDS011;64300;45.034;38.910;2023-05-10T05:14:44;14.75;;;2.80;;
75687;SDS011;64300;45.034;38.910;2023-05-10T05:17:10;7.97;;;3.97;;
75687;SDS011;64300;45.034;38.910;2023-05-10T05:19:35;8.57;;;3.85;;
75687;SDS011;64300;45.034;38.910;2023-05-10T05:22:01;7.20;;;4.25;;
75687;SDS011;64300;45.034;38.910;2023-05-10T05:24:27;9.82;;;3.78;;
75687;SDS011;64300;45.034;38.910;2023-05-10T05:26:53;5.45;;;2.55;;
75687;SDS011;64300;45.034;38.910;2023-05-10T05:29:19;8.52;;;3.30;;
75687;SDS011;64300;45.034;38.910;2023-05-10T05:31:44;9.02;;;4.05;;
75687;SDS011;64300;45.034;38.910;2023-05-10T05:34:10;11.50;;;4.05;;
75687;SDS011;64300;45.034;38.910;2023-05-10T05:36:39;8.07;;;3.83;;
75687;SDS011;64300;45.034;38.910;2023-05-10T05:39:04;8.13;;;3.47;;
75687;SDS011;64300;45.034;38.910;2023-05-10T05:41:30;11.05;;;4.20;;
75687;SDS011;64300;45.034;38.910;2023-05-10T05:43:59;14.60;;;5.60;;
75687;SDS011;64300;45.034;38.910;2023-05-10T05:46:25;12.57;;;3.60;;
75687;SDS011;64300;45.034;38.910;2023-05-10T05:48:50;8.13;;;3.67;;
75687;SDS011;64300;45.034;38.910;2023-05-10T05:51:16;7.70;;;3.42;;
75687;SDS011;64300;45.034;38.910;2023-05-10T05:53:42;9.30;;;3.38;;
75687;SDS011;64300;45.034;38.910;2023-05-10T05:56:07;7.22;;;3.33;;
75687;SDS011;64300;45.034;38.910;2023-05-10T05:58:34;6.20;;;3.10;;
75687;SDS011;64300;45.034;38.910;2023-05-10T06:01:00;6.78;;;3.40;;
75687;SDS011;64300;45.034;38.910;2023-05-10T06:03:26;6.30;;;2.80;;
75687;SDS011;64300;45.034;38.910;2023-05-10T06:08:33;9.05;;;3.83;;
75687;SDS011;64300;45.034;38.910;2023-05-10T06:10:59;8.68;;;4.22;;
75687;SDS011;64300;45.034;38.910;2023-05-10T06:13:25;5.07;;;2.90;;
75687;SDS011;64300;45.034;38.910;2023-05-10T06:15:54;9.82;;;4.35;;
75687;SDS011;64300;45.034;38.910;2023-05-10T06:18:19;11.52;;;4.75;;
75687;SDS011;64300;45.034;38.910;2023-05-10T06:20:45;8.48;;;4.63;;
75687;SDS011;64300;45.034;38.910;2023-05-10T06:23:11;6.65;;;3.50;;
75687;SDS011;64300;45.034;38.910;2023-05-10T06:25:36;6.30;;;3.72;;
75687;SDS011;64300;45.034;38.910;2023-05-10T06:28:02;5.97;;;3.45;;
75687;SDS011;64300;45.034;38.910;2023-05-10T06:30:27;6.95;;;3.75;;
75687;SDS011;64300;45.034;38.910;2023-05-10T06:32:53;5.55;;;3.13;;
75687;SDS011;64300;45.034;38.910;2023-05-10T06:35:19;11.70;;;2.67;;
75687;SDS011;64300;45.034;38.910;2023-05-10T06:37:45;7.18;;;2.53;;
75687;SDS011;64300;45.034;38.910;2023-05-10T06:40:12;5.63;;;3.28;;
75687;SDS011;64300;45.034;38.910;2023-05-10T06:42:37;6.35;;;2.80;;
75687;SDS011;64300;45.034;38.910;2023-05-10T06:45:03;6.10;;;2.63;;
75687;SDS011;64300;45.034;38.910;2023-05-10T06:47:29;2.85;;;1.40;;
75687;SDS011;64300;45.034;38.910;2023-05-10T06:49:54;2.63;;;1.30;;
75687;SDS011;64300;45.034;38.910;2023-05-10T06:52:21;3.70;;;1.60;;
75687;SDS011;64300;45.034;38.910;2023-05-10T06:54:46;3.08;;;1.70;;
75687;SDS011;64300;45.034;38.910;2023-05-10T06:57:12;2.80;;;1.40;;
75687;SDS011;64300;45.034;38.910;2023-05-10T06:59:37;2.85;;;1.25;;
75687;SDS011;64300;45.034;38.910;2023-05-10T07:02:03;8.95;;;2.83;;
75687;SDS011;64300;45.034;38.910;2023-05-10T07:04:29;5.13;;;2.13;;
75687;SDS011;64300;45.034;38.910;2023-05-10T07:06:55;11.63;;;3.50;;
75687;SDS011;64300;45.034;38.910;2023-05-10T07:09:22;8.07;;;3.03;;
75687;SDS011;64300;45.034;38.910;2023-05-10T07:11:49;6.43;;;2.92;;
75687;SDS011;64300;45.034;38.910;2023-05-10T07:14:15;4.18;;;1.77;;
75687;SDS011;64300;45.034;38.910;2023-05-10T07:16:40;3.72;;;1.58;;
75687;SDS011;64300;45.034;38.910;2023-05-10T07:19:06;4.20;;;1.45;;
75687;SDS011;64300;45.034;38.910;2023-05-10T07:21:32;4.97;;;1.65;;
75687;SDS011;64300;45.034;38.910;2023-05-10T07:23:57;2.88;;;1.20;;
75687;SDS011;64300;45.034;38.910;2023-05-10T07:26:23;3.78;;;1.40;;
75687;SDS011;64300;45.034;38.910;2023-05-10T07:28:49;3.13;;;1.10;;
75687;SDS011;64300;45.034;38.910;2023-05-10T07:31:15;2.90;;;1.30;;
75687;SDS011;64300;45.034;38.910;2023-05-10T07:33:40;2.53;;;1.20;;
75687;SDS011;64300;45.034;38.910;2023-05-10T07:36:06;3.08;;;1.25;;
75687;SDS011;64300;45.034;38.910;2023-05-10T07:38:32;3.20;;;1.30;;
75687;SDS011;64300;45.034;38.910;2023-05-10T07:40:57;2.42;;;1.13;;
75687;SDS011;64300;45.034;38.910;2023-05-10T07:43:23;3.00;;;1.45;;
75687;SDS011;64300;45.034;38.910;2023-05-10T07:45:49;6.35;;;1.35;;
75687;SDS011;64300;45.034;38.910;2023-05-10T07:48:14;6.32;;;1.67;;
75687;SDS011;64300;45.034;38.910;2023-05-10T07:50:40;4.47;;;1.60;;
75687;SDS011;64300;45.034;38.910;2023-05-10T07:53:05;2.80;;;1.52;;
75687;SDS011;64300;45.034;38.910;2023-05-10T07:55:31;3.28;;;1.10;;
75687;SDS011;64300;45.034;38.910;2023-05-10T07:57:57;3.00;;;1.30;;
75687;SDS011;64300;45.034;38.910;2023-05-10T08:00:23;3.75;;;1.60;;
75687;SDS011;64300;45.034;38.910;2023-05-10T08:02:48;4.57;;;1.30;;
75687;SDS011;64300;45.034;38.910;2023-05-10T08:05:14;3.75;;;1.77;;
75687;SDS011;64300;45.034;38.910;2023-05-10T08:07:40;4.40;;;1.73;;
75687;SDS011;64300;45.034;38.910;2023-05-10T08:10:06;3.58;;;1.33;;
75687;SDS011;64300;45.034;38.910;2023-05-10T08:12:32;2.92;;;1.33;;
75687;SDS011;64300;45.034;38.910;2023-05-10T08:14:57;3.25;;;1.35;;
75687;SDS011;64300;45.034;38.910;2023-05-10T08:17:23;2.55;;;1.10;;
75687;SDS011;64300;45.034;38.910;2023-05-10T08:19:49;2.78;;;1.00;;
75687;SDS011;64300;45.034;38.910;2023-05-10T08:22:15;3.53;;;0.85;;
75687;SDS011;64300;45.034;38.910;2023-05-10T08:24:41;2.67;;;1.10;;
75687;SDS011;64300;45.034;38.910;2023-05-10T08:27:08;4.60;;;1.42;;
75687;SDS011;64300;45.034;38.910;2023-05-10T08:29:34;2.00;;;0.88;;
75687;SDS011;64300;45.034;38.910;2023-05-10T08:32:00;3.90;;;1.42;;
75687;SDS011;64300;45.034;38.910;2023-05-10T08:34:28;3.42;;;1.52;;
75687;SDS011;64300;45.034;38.910;2023-05-10T08:36:54;6.28;;;1.27;;
75687;SDS011;64300;45.034;38.910;2023-05-10T08:39:20;3.92;;;1.00;;
75687;SDS011;64300;45.034;38.910;2023-05-10T08:41:46;4.60;;;1.75;;
75687;SDS011;64300;45.034;38.910;2023-05-10T08:44:12;3.33;;;1.35;;
75687;SDS011;64300;45.034;38.910;2023-05-10T08:46:38;1.95;;;0.90;;
75687;SDS011;64300;45.034;38.910;2023-05-10T08:49:09;3.08;;;1.00;;
75687;SDS011;64300;45.034;38.910;2023-05-10T08:51:36;2.17;;;0.80;;
75687;SDS011;64300;45.034;38.910;2023-05-10T08:54:05;2.70;;;1.08;;
75687;SDS011;64300;45.034;38.910;2023-05-10T08:56:31;2.50;;;1.00;;
75687;SDS011;64300;45.034;38.910;2023-05-10T08:58:57;5.50;;;0.77;;
75687;SDS011;64300;45.034;38.910;2023-05-10T09:01:23;2.42;;;1.00;;
75687;SDS011;64300;45.034;38.910;2023-05-10T09:03:49;2.70;;;1.08;;
75687;SDS011;64300;45.034;38.910;2023-05-10T09:06:15;3.10;;;0.93;;
75687;SDS011;64300;45.034;38.910;2023-05-10T09:08:41;1.90;;;0.90;;
75687;SDS011;64300;45.034;38.910;2023-05-10T09:11:08;3.35;;;0.70;;
75687;SDS011;64300;45.034;38.910;2023-05-10T09:13:35;4.82;;;0.75;;
75687;SDS011;64300;45.034;38.910;2023-05-10T09:16:01;4.03;;;0.90;;
75687;SDS011;64300;45.034;38.910;2023-05-10T09:18:27;2.42;;;0.80;;
75687;SDS011;64300;45.034;38.910;2023-05-10T09:20:53;2.83;;;1.42;;
75687;SDS011;64300;45.034;38.910;2023-05-10T09:23:19;2.65;;;1.13;;
75687;SDS011;64300;45.034;38.910;2023-05-10T09:25:45;2.78;;;1.08;;
75687;SDS011;64300;45.034;38.910;2023-05-10T09:28:11;2.47;;;0.95;;
75687;SDS011;64300;45.034;38.910;2023-05-10T09:30:36;3.40;;;1.10;;
75687;SDS011;64300;45.034;38.910;2023-05-10T09:33:02;2.33;;;1.00;;
75687;SDS011;64300;45.034;38.910;2023-05-10T09:35:34;2.60;;;1.00;;
75687;SDS011;64300;45.034;38.910;2023-05-10T09:38:04;2.35;;;0.75;;
75687;SDS011;64300;45.034;38.910;2023-05-10T10:07:29;3.08;;;1.00;;
75687;SDS011;64300;45.034;38.910;2023-05-10T10:10:01;1.85;;;0.75;;
75687;SDS011;64300;45.034;38.910;2023-05-10T10:12:31;2.55;;;0.95;;
75687;SDS011;64300;45.034;38.910;2023-05-10T10:14:59;2.00;;;0.80;;
75687;SDS011;64300;45.034;38.910;2023-05-10T10:17:31;3.17;;;1.23;;
75687;SDS011;64300;45.034;38.910;2023-05-10T10:19:58;2.63;;;0.90;;
75687;SDS011;64300;45.034;38.910;2023-05-10T10:22:23;3.92;;;1.10;;
75687;SDS011;64300;45.034;38.910;2023-05-10T10:24:50;2.03;;;0.90;;
75687;SDS011;64300;45.034;38.910;2023-05-10T10:32:35;1.90;;;0.77;;
75687;SDS011;64300;45.034;38.910;2023-05-10T10:34:56;2.58;;;0.93;;
75687;SDS011;64300;45.034;38.910;2023-05-10T10:37:22;2.42;;;0.88;;
75687;SDS011;64300;45.034;38.910;2023-05-10T10:39:48;2.80;;;0.90;;
75687;SDS011;64300;45.034;38.910;2023-05-10T10:42:15;2.00;;;0.82;;
75687;SDS011;64300;45.034;38.910;2023-05-10T10:45:12;2.90;;;1.05;;
75687;SDS011;64300;45.034;38.910;2023-05-10T10:47:38;4.25;;;1.10;;
75687;SDS011;64300;45.034;38.910;2023-05-10T10:50:05;2.88;;;1.10;;
75687;SDS011;64300;45.034;38.910;2023-05-10T10:52:31;2.08;;;0.80;;
75687;SDS011;64300;45.034;38.910;2023-05-10T10:55:05;2.83;;;1.00;;
75687;SDS011;64300;45.034;38.910;2023-05-10T10:57:34;2.75;;;1.10;;
75687;SDS011;64300;45.034;38.910;2023-05-10T11:02:46;2.78;;;1.08;;
75687;SDS011;64300;45.034;38.910;2023-05-10T11:05:35;3.25;;;1.38;;
75687;SDS011;64300;45.034;38.910;2023-05-10T11:08:06;2.53;;;0.80;;
75687;SDS011;64300;45.034;38.910;2023-05-10T11:10:32;3.22;;;1.10;;
75687;SDS011;64300;45.034;38.910;2023-05-10T11:13:02;4.25;;;1.27;;
75687;SDS011;64300;45.034;38.910;2023-05-10T11:15:36;2.92;;;1.10;;
75687;SDS011;64300;45.034;38.910;2023-05-10T11:18:23;2.55;;;1.00;;
75687;SDS011;64300;45.034;38.910;2023-05-10T11:20:52;4.93;;;1.17;;
75687;SDS011;64300;45.034;38.910;2023-05-10T11:23:21;4.53;;;0.98;;
75687;SDS011;64300;45.034;38.910;2023-05-10T11:25:47;2.72;;;1.08;;
75687;SDS011;64300;45.034;38.910;2023-05-10T11:28:13;2.03;;;0.80;;
75687;SDS011;64300;45.034;38.910;2023-05-10T11:30:39;1.75;;;0.90;;
75687;SDS011;64300;45.034;38.910;2023-05-10T11:33:06;2.17;;;0.98;;
75687;SDS011;64300;45.034;38.910;2023-05-10T11:35:41;4.88;;;1.00;;
75687;SDS011;64300;45.034;38.910;2023-05-10T11:38:07;2.30;;;0.80;;
75687;SDS011;64300;45.034;38.910;2023-05-10T11:40:33;2.17;;;0.95;;
75687;SDS011;64300;45.034;38.910;2023-05-10T11:42:59;3.85;;;0.93;;
75687;SDS011;64300;45.034;38.910;2023-05-10T11:45:25;2.30;;;1.00;;
75687;SDS011;64300;45.034;38.910;2023-05-10T11:47:51;2.90;;;0.88;;
75687;SDS011;64300;45.034;38.910;2023-05-10T11:50:17;2.45;;;1.00;;
75687;SDS011;64300;45.034;38.910;2023-05-10T11:52:43;2.55;;;1.02;;
75687;SDS011;64300;45.034;38.910;2023-05-10T11:55:09;6.13;;;1.55;;
75687;SDS011;64300;45.034;38.910;2023-05-10T11:57:35;4.13;;;1.10;;
75687;SDS011;64300;45.034;38.910;2023-05-10T12:00:03;2.63;;;1.10;;
75687;SDS011;64300;45.034;38.910;2023-05-10T12:02:33;2.40;;;1.10;;
75687;SDS011;64300;45.034;38.910;2023-05-10T12:04:58;2.72;;;1.10;;
75687;SDS011;64300;45.034;38.910;2023-05-10T12:07:25;2.40;;;1.00;;
75687;SDS011;64300;45.034;38.910;2023-05-10T12:12:38;3.65;;;0.95;;
75687;SDS011;64300;45.034;38.910;2023-05-10T12:15:05;4.68;;;1.10;;
75687;SDS011;64300;45.034;38.910;2023-05-10T12:17:31;2.00;;;1.00;;
75687;SDS011;64300;45.034;38.910;2023-05-10T12:22:46;3.33;;;1.10;;
75687;SDS011;64300;45.034;38.910;2023-05-10T12:25:12;2.28;;;0.90;;
75687;SDS011;64300;45.034;38.910;2023-05-10T12:27:38;2.80;;;1.27;;
75687;SDS011;64300;45.034;38.910;2023-05-10T12:30:04;4.13;;;0.93;;
75687;SDS011;64300;45.034;38.910;2023-05-10T12:32:43;4.25;;;0.90;;
75687;SDS011;64300;45.034;38.910;2023-05-10T12:35:09;1.88;;;0.85;;
